Station: Gladstone Airport  

  Atmospheric Gas Attenuation - ITU Rec 676-11   ----------------- dB/100km -----------------
Date Time Temp RH % AH g/m3 Dew Point Wind Direction Speed kph Gust kph Barometer mB Rainfall Since 9am 24GHz 47GHz 76GHz 122GHz 134GHz 241GHz
08/05 12:30 23.3 16 3.35 -3.9 13 24 1018.5 0 8.2 16.6 18.8 48.3 32.0 106.4
08/05 12:20 23.5 17 3.59 -2.9 13 17 1018.8 0 8.7 16.9 19.4 50.0 34.3 114.3
08/05 12:10 23.3 17 3.55 -3.1 7 9 1018.9 0 8.6 16.9 19.4 49.8 34.0 113.2
08/05 12:00 22.8 16 3.25 -4.3 13 20 1019 0 8.0 16.6 18.6 47.8 31.3 103.7
08/05 11:50 22.8 17 3.45 -3.5 11 17 1019.1 0 8.5 16.9 19.2 49.4 33.2 110.5
08/05 11:40 22.4 16 3.18 -4.6 15 19 1019.1 0 7.9 16.6 18.5 47.5 30.8 101.8
08/05 11:30 22.1 17 3.32 -4.1 13 22 1019.5 0 8.2 16.8 19.0 48.8 32.2 107.0
08/05 11:20 21.9 18 3.47 -3.5 11 13 1019.7 0 8.5 17.1 19.5 50.1 33.8 112.4
08/05 11:10 21.1 17 3.13 -4.9 17 24 1019.9 0 7.8 16.8 18.7 47.9 30.8 101.7
08/05 11:00 21.7 18 3.43 -3.6 15 30 1019.9 0 8.4 17.1 19.4 49.9 33.5 111.3
08/05 10:50 21.1 19 3.5 -3.4 13 15 1020.1 0 8.6 17.3 19.7 50.8 34.4 114.5
08/05 10:40 21.1 19 3.5 -3.4 17 22 1020.4 0 8.6 17.3 19.8 50.8 34.4 114.6
08/05 10:30 20.7 19 3.42 -3.7 17 24 1020.4 0 8.4 17.2 19.6 50.4 33.8 112.3
08/05 10:20 20.3 19 3.34 -4 19 22 1020.6 0 8.3 17.2 19.5 50.1 33.2 110.1
08/05 10:10 20.2 21 3.67 -2.8 11 15 1020.7 0 9.0 17.6 20.5 52.8 36.5 121.8
08/05 10:00 19.9 21 3.61 -3 17 26 1020.6 0 8.9 17.6 20.4 52.5 36.0 120.1
08/05 09:50 19.8 21 3.59 -3.1 19 22 1020.7 0 8.8 17.6 20.3 52.4 35.9 119.5
08/05 09:40 19.3 21 3.48 -3.5 17 22 1020.7 0 8.6 17.6 20.1 51.8 35.0 116.3
08/05 09:30 18.8 22 3.54 -3.3 20 32 1020.8 0 8.7 17.7 20.4 52.6 35.8 119.2
08/05 09:20 18.4 24 3.77 -2.5 19 22 1020.7 0 9.2 18.1 21.2 54.8 38.3 128.1
08/05 09:10 18.8 25 4.03 -1.6 17 20 1020.8 0 9.8 18.4 21.9 56.7 40.8 136.9
08/05 09:00 18.2 26 4.04 -1.6 17 28 1020.8 0 9.8 18.5 22.1 57.2 41.2 138.3
08/05 08:50 17.6 27 4.05 -1.6 22 28 1020.9 0 9.8 18.6 22.3 57.7 41.7 139.7
08/05 08:40 17.2 32 4.69 0.4 17 20 1020.8 0 11.2 19.5 24.5 63.5 48.7 164.5
08/05 08:30 17 33 4.77 0.6 19 28 1020.9 0 11.4 19.7 24.8 64.4 49.7 168.0
08/05 08:20 16.8 34 4.86 0.9 22 30 1020.9 0 11.6 19.9 25.2 65.3 50.8 171.9
08/05 08:10 16.6 35 4.94 1.1 17 26 1020.7 0 11.7 20.0 25.5 66.2 51.8 175.4
08/05 08:00 16.4 36 5.02 1.3 20 33 1020.7 0 11.9 20.2 25.8 67.1 52.9 179.0
08/05 07:50 16.5 37 5.2 1.8 11 15 1020.6 0 12.3 20.4 26.4 68.6 54.8 185.8
08/05 07:40 16.4 37 5.16 1.7 20 28 1020.4 0 12.2 20.3 26.3 68.3 54.4 184.4
08/05 07:30 16.3 37 5.13 1.6 20 37 1020.2 0 12.1 20.3 26.2 68.1 54.1 183.4
08/05 07:20 16.3 38 5.27 2 19 26 1019.9 0 12.4 20.5 26.7 69.4 55.7 188.9
08/05 07:10 16.2 40 5.52 2.6 17 22 1019.7 0 13.0 20.9 27.6 71.7 58.6 199.1
08/05 07:00 16.1 44 6.03 3.9 15 28 1019.6 0 14.0 21.6 29.4 76.6 64.5 220.0
08/05 06:50 15.9 47 6.36 4.6 15 20 1019.6 0 14.7 22.1 30.6 79.9 68.6 234.2
08/05 06:40 15.8 49 6.6 5.1 9 13 1019.5 0 15.3 22.5 31.5 82.3 71.5 244.5
08/05 06:30 15.9 48 6.5 4.9 11 19 1019.4 0 15.0 22.3 31.1 81.2 70.2 240.0
08/05 06:20 16 48 6.54 5 13 19 1019.2 0 15.1 22.4 31.2 81.5 70.6 241.3
08/05 06:10 16 49 6.68 5.3 11 13 1019.1 0 15.4 22.6 31.7 82.9 72.3 247.2
08/05 06:00 16 49 6.68 5.3 9 15 1019.1 0 15.4 22.6 31.7 82.9 72.3 247.2
08/05 05:50 16.1 49 6.72 5.4 9 13 1018.9 0 15.5 22.6 31.8 83.1 72.7 248.5
08/05 05:40 16.3 48 6.66 5.3 11 15 1018.7 0 15.4 22.4 31.5 82.3 71.7 245.3
08/05 05:30 16.3 48 6.66 5.3 9 15 1018.4 0 15.4 22.4 31.5 82.3 71.7 245.3
08/05 05:20 16.5 47 6.6 5.2 13 17 1018.4 0 15.2 22.3 31.2 81.5 70.8 242.2
08/05 05:10 17 45 6.51 5 11 13 1018.3 0 15.0 22.0 30.7 80.1 69.3 236.9
08/05 05:00 17.3 44 6.48 4.9 15 26 1018.1 0 14.9 21.9 30.5 79.5 68.7 234.8
08/05 04:50 17.5 44 6.56 5.1 20 28 1018.1 0 15.1 22.0 30.7 80.1 69.5 237.5
08/05 04:40 17.6 43 6.45 4.9 13 17 1018.2 0 14.9 21.8 30.3 79.0 68.1 232.7
08/05 04:30 17.8 43 6.53 5.1 15 28 1018.2 0 15.0 21.9 30.5 79.5 68.9 235.4
08/05 04:20 17.8 43 6.53 5.1 13 19 1018 0 15.0 21.9 30.5 79.5 68.9 235.4
08/05 04:10 18 42 6.45 4.9 17 24 1018 0 14.9 21.7 30.1 78.6 67.8 231.6
08/05 04:00 18 42 6.45 4.9 13 20 1018 0 14.9 21.7 30.1 78.6 67.8 231.6
08/05 03:50 18.2 41 6.37 4.7 17 20 1017.9 0 14.7 21.5 29.8 77.6 66.7 227.7
08/05 03:40 18.3 41 6.41 4.8 15 22 1017.6 0 14.8 21.6 29.9 77.9 67.0 229.0
08/05 03:30 18.4 41 6.45 4.9 13 22 1017.7 0 14.8 21.6 30.0 78.2 67.4 230.4
08/05 03:20 18.5 41 6.49 5 11 13 1017.6 0 14.9 21.6 30.1 78.4 67.8 231.7
08/05 03:10 18.7 40 6.4 4.8 13 19 1017.5 0 14.7 21.5 29.7 77.4 66.6 227.5
08/05 03:00 18.8 40 6.44 4.9 13 24 1017.3 0 14.8 21.5 29.8 77.7 66.9 228.8
08/05 02:50 18.9 40 6.48 5 11 15 1017.2 0 14.9 21.5 29.9 77.9 67.3 230.1
08/05 02:40 19 40 6.52 5.1 13 19 1017.1 0 15.0 21.5 30.0 78.2 67.7 231.4
08/05 02:30 19.1 41 6.72 5.6 13 26 1017.1 0 15.4 21.8 30.6 79.9 69.9 239.1
08/05 02:20 19.2 41 6.76 5.6 17 20 1017 0 15.5 21.8 30.7 80.2 70.2 240.4
08/05 02:10 19.3 42 6.97 6.1 11 15 1017.1 0 15.9 22.1 31.4 82.1 72.6 248.6
08/05 02:00 19.6 42 7.09 6.4 13 24 1017.1 0 16.1 22.2 31.7 82.9 73.7 252.6
08/05 01:50 19.7 42 7.13 6.4 15 19 1017.1 0 16.2 22.2 31.8 83.2 74.1 253.9
08/05 01:40 19.8 43 7.34 6.9 13 17 1017 0 16.7 22.5 32.5 85.0 76.4 262.1
08/05 01:30 19.7 44 7.47 7.1 13 19 1017 0 16.9 22.7 33.0 86.4 78.0 267.8
08/05 01:20 20 44 7.6 7.4 15 19 1016.9 0 17.2 22.8 33.4 87.3 79.2 272.1
08/05 01:10 19.8 46 7.86 7.9 13 17 1017 0 17.7 23.3 34.4 90.0 82.5 283.6
08/05 01:00 19.7 48 8.15 8.4 9 15 1017 0 18.4 23.7 35.5 92.9 86.1 296.1
08/05 00:50 19.6 49 8.27 8.6 9 11 1017.1 0 18.6 23.9 36.0 94.2 87.7 301.6
08/05 00:40 19.9 49 8.42 8.9 9 11 1017.2 0 18.9 24.1 36.4 95.4 89.2 306.8
08/05 00:30 19.8 51 8.71 9.4 9 11 1017.1 0 19.5 24.5 37.5 98.3 92.8 319.6
08/05 00:20 19.7 53 9 9.9 7 9 1017.2 0 20.1 25.0 38.6 101.4 96.5 332.5
08/05 00:10 19.7 54 9.17 10.1 7 9 1017.3 0 20.5 25.3 39.3 103.1 98.6 339.9
08/05 00:00 19.7 54 9.17 10.1 7 9 1017.3 0 20.5 25.3 39.3 103.1 98.6 339.9
07/05 23:50 19.3 57 9.45 10.6 6 6 1017.3 0 21.1 25.8 40.5 106.5 102.6 354.0
07/05 23:40 19.7 56 9.51 10.7 0 0 1017.4 0 21.2 25.8 40.6 106.6 102.9 354.9
07/05 23:30 19.2 58 9.56 10.7 2 6 1017.5 0 21.4 26.0 41.0 107.8 104.2 359.4
07/05 23:20 19.5 60 10.07 11.5 2 4 1017.6 0 22.4 26.7 42.9 112.7 110.3 380.9
07/05 23:10 19.9 59 10.14 11.7 6 6 1017.6 0 22.5 26.7 42.9 112.8 110.7 382.1
07/05 23:00 20.3 56 9.85 11.2 6 9 1017.5 0 21.9 26.1 41.6 109.2 106.4 367.2
07/05 22:50 20.3 59 10.38 12 4 6 1017.5 0 23.0 27.0 43.6 114.7 113.2 390.9
07/05 22:40 20.3 60 10.55 12.3 6 6 1017.5 0 23.4 27.2 44.3 116.5 115.4 398.6
07/05 22:30 20.5 61 10.85 12.7 6 6 1017.5 0 24.0 27.7 45.4 119.4 119.0 411.2
07/05 22:20 21 60 10.99 12.9 6 7 1017.5 0 24.3 27.7 45.7 120.1 120.0 415.0
07/05 22:10 21.1 61 11.24 13.3 6 7 1017.6 0 24.8 28.1 46.6 122.6 123.1 425.9
07/05 22:00 21.5 59 11.12 13.2 9 13 1017.6 0 24.5 27.8 45.9 120.8 120.9 418.3
07/05 21:50 21.5 61 11.5 13.7 11 13 1017.6 0 25.3 28.4 47.4 124.8 125.9 435.7
07/05 21:40 21.8 62 11.89 14.2 11 15 1017.5 0 26.1 28.9 48.8 128.5 130.6 451.9
07/05 21:30 21.4 70 13.12 15.7 9 15 1017.5 0 28.8 31.1 54.1 142.7 147.9 512.6
07/05 21:20 21.4 84 15.75 18.6 7 7 1017.5 0 34.4 35.8 65.7 173.5 185.8 644.6
07/05 21:10 21.5 84 15.84 18.7 6 7 1017.5 0 34.5 35.9 66.0 174.4 186.9 648.5
07/05 21:00 21.6 86 16.31 19.2 7 9 1017.5 0 35.5 36.7 68.1 179.9 193.7 672.3
07/05 20:50 21.6 88 16.69 19.5 7 9 1017.5 0 36.3 37.4 69.9 184.6 199.5 692.4
07/05 20:40 21.7 88 16.79 19.6 7 7 1017.4 0 36.6 37.6 70.2 185.6 200.8 696.8
07/05 20:30 21.9 87 16.79 19.6 7 9 1017.3 0 36.5 37.5 70.1 185.1 200.2 694.9
07/05 20:20 22.1 87 16.98 19.8 7 7 1017.3 0 36.9 37.7 70.8 187.0 202.6 703.1
07/05 20:10 22.3 87 17.18 20 0 0 1017.2 0 37.3 38.0 71.5 189.0 205.1 711.9
07/05 20:00 22.5 86 17.18 20 0 0 1017.1 0 37.3 37.9 71.3 188.5 204.5 710.0

Last Refresh: 08-May-2026 12:08:51

Bureau of Meteorology